Time;durP1;ratioP1;P1;durP2;ratioP2;P2;SDS_P1;SDS_P2;PMS_P1;PMS_P2;Temp;Humidity;BMP_temperature;BMP_pressure;BME280_temperature;BME280_humidity;BME280_pressure;Samples;Min_cycle;Max_cycle;Signal;HPM_P1;HPM_P2
2021/10/20 00:00:45;;;;;;;;;;;23.20;47.00;;;;;;1642290;72;783;-66
2021/10/20 00:02:49;;;;;;;;;;;23.20;47.00;;;;;;1614976;72;684;-65
2021/10/20 00:04:50;;;;;;;;;;;23.20;47.10;;;;;;1632356;71;1930;-65
2021/10/20 00:06:52;;;;;;;;;;;23.20;47.00;;;;;;1621635;72;780;-65
2021/10/20 00:08:54;;;;;;;;;;;23.20;47.10;;;;;;1633270;71;710;-65
2021/10/20 00:10:56;;;;;;;;;;;23.20;47.20;;;;;;1626001;72;960;-66
2021/10/20 00:12:58;;;;;;;;;;;23.20;47.20;;;;;;1644117;72;750;-68
2021/10/20 00:14:59;;;;;;;;;;;23.20;47.20;;;;;;1630954;72;1148;-65
2021/10/20 00:17:01;;;;;;;;;;;23.20;47.30;;;;;;1621270;72;713;-65
2021/10/20 00:19:03;;;;;;;;;;;23.20;47.30;;;;;;1629725;72;816;-65
2021/10/20 00:21:05;;;;;;;;;;;23.20;47.30;;;;;;1630381;72;724;-65
2021/10/20 00:23:09;;;;;;;;;;;23.20;47.20;;;;;;1608267;72;801;-65
2021/10/20 00:25:11;;;;;;;;;;;23.20;47.20;;;;;;1631919;72;1945;-65
2021/10/20 00:27:13;;;;;;;;;;;23.20;47.30;;;;;;1636781;71;824;-65
2021/10/20 00:29:15;;;;;;;;;;;23.20;47.30;;;;;;1632231;72;742;-68
2021/10/20 00:31:16;;;;;;;;;;;23.20;47.30;;;;;;1603007;72;736;-65
2021/10/20 00:33:18;;;;;;;;;;;23.10;47.20;;;;;;1636224;72;798;-65
2021/10/20 00:35:20;;;;;;;;;;;23.20;47.20;;;;;;1631012;72;1161;-65
2021/10/20 00:37:22;;;;;;;;;;;23.20;47.30;;;;;;1641673;72;766;-65
2021/10/20 00:39:24;;;;;;;;;;;23.10;47.30;;;;;;1635541;72;786;-65
2021/10/20 00:41:29;;;;;;;;;;;23.10;47.30;;;;;;1654221;72;744;-65
2021/10/20 00:43:31;;;;;;;;;;;23.10;47.30;;;;;;1617468;72;795;-65
2021/10/20 00:45:33;;;;;;;;;;;23.10;47.20;;;;;;1631878;72;1987;-65
2021/10/20 00:47:35;;;;;;;;;;;23.10;47.30;;;;;;1588468;73;947;-66
2021/10/20 00:49:37;;;;;;;;;;;23.10;47.30;;;;;;1554838;75;717;-66
2021/10/20 00:51:39;;;;;;;;;;;23.10;47.40;;;;;;1567449;75;795;-66
2021/10/20 00:53:41;;;;;;;;;;;23.10;47.30;;;;;;1562741;73;844;-66
2021/10/20 00:55:42;;;;;;;;;;;23.10;47.40;;;;;;1587359;73;1170;-67
2021/10/20 00:57:45;;;;;;;;;;;23.10;47.30;;;;;;1580720;75;750;-71
2021/10/20 00:59:47;;;;;;;;;;;23.10;47.30;;;;;;1632069;72;759;-66
2021/10/20 01:01:49;;;;;;;;;;;23.10;47.30;;;;;;1622886;72;775;-68
2021/10/20 01:03:51;;;;;;;;;;;23.10;47.30;;;;;;1615028;72;1131;-66
2021/10/20 01:05:52;;;;;;;;;;;23.10;47.30;;;;;;1618106;72;1928;-66
2021/10/20 01:07:54;;;;;;;;;;;23.10;47.40;;;;;;1614426;72;738;-68
2021/10/20 01:09:56;;;;;;;;;;;23.10;47.40;;;;;;1608056;72;808;-66
2021/10/20 01:11:58;;;;;;;;;;;23.10;47.30;;;;;;1618325;72;815;-65
2021/10/20 01:14:00;;;;;;;;;;;23.10;47.40;;;;;;1602530;72;1096;-69
2021/10/20 01:16:02;;;;;;;;;;;23.20;47.60;;;;;;1600491;72;653;-66
2021/10/20 01:18:04;;;;;;;;;;;23.20;47.50;;;;;;1614145;72;736;-68
2021/10/20 01:20:06;;;;;;;;;;;23.10;47.40;;;;;;1590704;72;791;-66
2021/10/20 01:22:08;;;;;;;;;;;23.10;47.50;;;;;;1619286;72;674;-66
2021/10/20 01:24:09;;;;;;;;;;;23.10;47.50;;;;;;1631047;72;1119;-66
2021/10/20 01:26:11;;;;;;;;;;;23.10;47.60;;;;;;1606570;72;1937;-65
2021/10/20 01:28:13;;;;;;;;;;;23.10;47.50;;;;;;1626106;72;741;-66
2021/10/20 01:30:15;;;;;;;;;;;23.10;47.50;;;;;;1600030;73;760;-65
2021/10/20 01:32:17;;;;;;;;;;;23.10;47.60;;;;;;1613715;72;706;-65
2021/10/20 01:34:19;;;;;;;;;;;23.10;47.60;;;;;;1625940;72;1130;-66
2021/10/20 01:36:21;;;;;;;;;;;23.10;47.60;;;;;;1620586;72;764;-67
2021/10/20 01:38:23;;;;;;;;;;;23.10;47.60;;;;;;1612054;72;738;-69
2021/10/20 01:40:25;;;;;;;;;;;23.10;47.60;;;;;;1607151;72;822;-65
2021/10/20 01:42:27;;;;;;;;;;;23.10;47.60;;;;;;1633450;72;737;-66
2021/10/20 01:44:29;;;;;;;;;;;23.10;47.50;;;;;;1613469;72;1116;-62
2021/10/20 01:46:31;;;;;;;;;;;23.20;47.50;;;;;;1627175;72;1931;-66
2021/10/20 01:48:33;;;;;;;;;;;23.10;47.50;;;;;;1628034;72;787;-65
2021/10/20 01:50:35;;;;;;;;;;;23.10;47.40;;;;;;1606076;72;794;-66
2021/10/20 01:52:36;;;;;;;;;;;23.10;47.40;;;;;;1614729;72;779;-66
2021/10/20 01:54:38;;;;;;;;;;;23.10;47.50;;;;;;1617652;72;1150;-66
2021/10/20 01:56:40;;;;;;;;;;;23.10;47.40;;;;;;1608143;72;777;-68
2021/10/20 01:58:42;;;;;;;;;;;23.10;47.40;;;;;;1597183;73;766;-68
2021/10/20 02:00:44;;;;;;;;;;;23.10;47.50;;;;;;1610412;72;779;-63
2021/10/20 02:02:46;;;;;;;;;;;23.10;47.50;;;;;;1595016;73;736;-66
2021/10/20 02:04:48;;;;;;;;;;;23.10;47.40;;;;;;1593583;71;226303;-77
2021/10/20 02:06:50;;;;;;;;;;;23.10;47.60;;;;;;1564573;74;1927;-75
2021/10/20 02:08:52;;;;;;;;;;;23.10;47.60;;;;;;1564809;74;1171;-75
2021/10/20 02:10:54;;;;;;;;;;;23.10;47.60;;;;;;1574812;75;709;-75
2021/10/20 02:12:56;;;;;;;;;;;23.10;47.60;;;;;;1575882;74;660;-74
2021/10/20 02:14:57;;;;;;;;;;;23.10;47.60;;;;;;1567487;74;780;-75
2021/10/20 02:16:59;;;;;;;;;;;23.10;47.60;;;;;;1570576;74;762;-75
2021/10/20 02:19:01;;;;;;;;;;;23.10;47.60;;;;;;1570643;75;1128;-77
2021/10/20 02:21:03;;;;;;;;;;;23.10;47.70;;;;;;1573105;74;724;-76
2021/10/20 02:23:05;;;;;;;;;;;23.10;47.70;;;;;;1573072;75;723;-76
2021/10/20 02:25:07;;;;;;;;;;;23.10;47.70;;;;;;1575636;74;801;-76
2021/10/20 02:27:09;;;;;;;;;;;23.10;47.80;;;;;;1575846;74;2648;-76
2021/10/20 02:29:11;;;;;;;;;;;23.10;47.80;;;;;;1573649;75;1138;-77
2021/10/20 02:31:13;;;;;;;;;;;23.10;47.70;;;;;;1569817;74;642;-77
2021/10/20 02:33:14;;;;;;;;;;;23.10;47.70;;;;;;1574479;74;797;-77
2021/10/20 02:35:16;;;;;;;;;;;23.20;47.70;;;;;;1570572;74;756;-75
2021/10/20 02:37:18;;;;;;;;;;;23.20;47.70;;;;;;1566161;74;776;-74
2021/10/20 02:39:20;;;;;;;;;;;23.10;47.70;;;;;;1557205;74;1137;-75
2021/10/20 02:41:22;;;;;;;;;;;23.20;47.70;;;;;;1576074;74;761;-75
2021/10/20 02:43:24;;;;;;;;;;;23.20;47.70;;;;;;1565338;75;769;-75
2021/10/20 02:45:26;;;;;;;;;;;23.20;47.70;;;;;;1577491;75;1958;-76
2021/10/20 02:47:28;;;;;;;;;;;23.20;47.60;;;;;;1564693;74;809;-78
2021/10/20 02:49:29;;;;;;;;;;;23.20;47.60;;;;;;1574469;75;1141;-78
2021/10/20 02:51:32;;;;;;;;;;;23.20;47.60;;;;;;1564294;74;766;-78
2021/10/20 02:53:34;;;;;;;;;;;23.20;47.50;;;;;;1566834;75;705;-77
2021/10/20 02:55:39;;;;;;;;;;;23.20;47.40;;;;;;1567846;75;748;-78
2021/10/20 02:57:39;;;;;;;;;;;23.30;47.40;;;;;;1574340;74;1134;-77
2021/10/20 02:59:41;;;;;;;;;;;23.30;47.30;;;;;;1577254;74;1134;-77
2021/10/20 03:01:43;;;;;;;;;;;23.30;47.20;;;;;;1568995;75;787;-77
2021/10/20 03:03:45;;;;;;;;;;;23.40;47.10;;;;;;1569058;75;701;-77
2021/10/20 03:05:47;;;;;;;;;;;23.40;47.00;;;;;;1574223;74;1922;-77
2021/10/20 03:07:49;;;;;;;;;;;23.50;47.00;;;;;;1567299;75;787;-75
2021/10/20 03:09:51;;;;;;;;;;;23.50;46.90;;;;;;1577820;74;1155;-75
2021/10/20 03:11:53;;;;;;;;;;;23.50;46.80;;;;;;1585946;74;779;-75
2021/10/20 03:13:56;;;;;;;;;;;23.50;46.70;;;;;;1581974;74;695;-75
2021/10/20 03:15:58;;;;;;;;;;;23.60;46.50;;;;;;1567619;74;710;-75
2021/10/20 03:18:00;;;;;;;;;;;23.70;46.50;;;;;;1573313;74;839;-76
2021/10/20 03:20:02;;;;;;;;;;;23.70;46.30;;;;;;1574704;74;1126;-76
2021/10/20 03:22:04;;;;;;;;;;;23.70;46.20;;;;;;1570919;74;661;-76
2021/10/20 03:24:07;;;;;;;;;;;23.70;46.10;;;;;;1572542;74;727;-76
2021/10/20 03:26:09;;;;;;;;;;;23.80;46.00;;;;;;1564061;74;1926;-75
2021/10/20 03:28:11;;;;;;;;;;;23.80;46.00;;;;;;1572696;75;764;-76
2021/10/20 03:30:13;;;;;;;;;;;23.70;45.90;;;;;;1575090;74;1100;-76
2021/10/20 03:32:15;;;;;;;;;;;23.70;45.90;;;;;;1582299;74;666;-76
2021/10/20 03:34:17;;;;;;;;;;;23.70;46.00;;;;;;1563215;74;771;-75
2021/10/20 03:36:19;;;;;;;;;;;23.70;46.00;;;;;;1571834;74;760;-75
2021/10/20 03:38:21;;;;;;;;;;;23.70;46.00;;;;;;1563809;74;792;-75
2021/10/20 03:40:22;;;;;;;;;;;23.70;46.00;;;;;;1575508;74;1140;-75
2021/10/20 03:42:24;;;;;;;;;;;23.70;46.00;;;;;;1581186;74;710;-75
2021/10/20 03:44:26;;;;;;;;;;;23.60;45.80;;;;;;1576580;74;826;-76
2021/10/20 03:46:28;;;;;;;;;;;23.70;46.00;;;;;;1570768;74;1954;-76
2021/10/20 03:48:30;;;;;;;;;;;23.60;45.80;;;;;;1572667;74;1205;-76
2021/10/20 03:50:32;;;;;;;;;;;23.60;45.90;;;;;;1570777;75;580;-75
2021/10/20 03:52:34;;;;;;;;;;;23.60;45.90;;;;;;1562408;74;703;-75
2021/10/20 03:54:35;;;;;;;;;;;23.60;45.90;;;;;;1569053;74;741;-76
2021/10/20 03:56:37;;;;;;;;;;;23.60;46.00;;;;;;1564469;75;768;-76
2021/10/20 03:58:39;;;;;;;;;;;23.60;46.00;;;;;;1562230;74;1176;-75
2021/10/20 04:00:41;;;;;;;;;;;23.60;46.00;;;;;;1572660;74;779;-75
2021/10/20 04:02:44;;;;;;;;;;;23.60;46.00;;;;;;1571782;74;668;-76
2021/10/20 04:04:46;;;;;;;;;;;23.50;46.00;;;;;;1566961;74;708;-75
2021/10/20 04:06:48;;;;;;;;;;;23.60;46.00;;;;;;1574319;74;1935;-76
2021/10/20 04:08:50;;;;;;;;;;;23.50;46.00;;;;;;1574132;74;1156;-75
2021/10/20 04:10:52;;;;;;;;;;;23.60;46.00;;;;;;1577031;74;779;-75
2021/10/20 04:12:54;;;;;;;;;;;23.50;46.00;;;;;;1573008;74;714;-75
2021/10/20 04:14:55;;;;;;;;;;;23.50;46.00;;;;;;1572536;74;698;-75
2021/10/20 04:16:57;;;;;;;;;;;23.50;46.00;;;;;;1574240;74;789;-75
2021/10/20 04:18:59;;;;;;;;;;;23.50;46.10;;;;;;1586650;74;1157;-75
2021/10/20 04:21:01;;;;;;;;;;;23.50;46.00;;;;;;1589254;74;778;-76
2021/10/20 04:23:03;;;;;;;;;;;23.50;46.00;;;;;;1564818;74;781;-75
2021/10/20 04:25:05;;;;;;;;;;;23.50;46.10;;;;;;1567240;74;742;-76
2021/10/20 04:27:07;;;;;;;;;;;23.50;46.10;;;;;;1572333;75;1927;-75
2021/10/20 04:29:09;;;;;;;;;;;23.50;46.10;;;;;;1572553;75;1130;-75
2021/10/20 04:31:11;;;;;;;;;;;23.50;46.00;;;;;;1562614;74;732;-74
2021/10/20 04:33:13;;;;;;;;;;;23.50;46.00;;;;;;1568663;74;732;-74
2021/10/20 04:35:14;;;;;;;;;;;23.50;46.10;;;;;;1582629;74;673;-74
2021/10/20 04:37:23;;;;;;;;;;;23.40;46.00;;;;;;1573272;74;794;-75
2021/10/20 04:39:20;;;;;;;;;;;23.50;46.10;;;;;;1569893;74;1584;-74
2021/10/20 04:41:23;;;;;;;;;;;23.40;45.90;;;;;;1556375;74;787;-74
2021/10/20 04:43:25;;;;;;;;;;;23.50;46.10;;;;;;1577740;74;636;-75
2021/10/20 04:45:27;;;;;;;;;;;23.40;46.00;;;;;;1575221;74;784;-75
2021/10/20 04:47:29;;;;;;;;;;;23.50;46.00;;;;;;1575184;74;1938;-74
2021/10/20 04:49:31;;;;;;;;;;;23.50;46.10;;;;;;1568705;74;1144;-75
2021/10/20 04:51:32;;;;;;;;;;;23.40;46.00;;;;;;1564384;74;737;-77
2021/10/20 04:53:34;;;;;;;;;;;23.50;46.10;;;;;;1572314;74;735;-76
2021/10/20 04:55:36;;;;;;;;;;;23.40;46.00;;;;;;1571766;74;736;-76
2021/10/20 04:57:38;;;;;;;;;;;23.50;46.40;;;;;;1569360;74;768;-77
2021/10/20 04:59:56;;;;;;;;;;;23.50;46.40;;;;;;1579933;74;1175;-77
2021/10/20 05:01:53;;;;;;;;;;;23.60;46.20;;;;;;1568049;75;1149;-77
2021/10/20 05:03:55;;;;;;;;;;;23.60;46.10;;;;;;1570167;74;773;-77
2021/10/20 05:05:57;;;;;;;;;;;23.50;46.10;;;;;;1568181;74;730;-77
2021/10/20 05:07:59;;;;;;;;;;;23.50;46.10;;;;;;1556496;74;1947;-77
2021/10/20 05:10:01;;;;;;;;;;;23.50;46.00;;;;;;1554809;75;1153;-77
2021/10/20 05:12:03;;;;;;;;;;;23.50;46.00;;;;;;1558861;74;769;-77
2021/10/20 05:14:05;;;;;;;;;;;23.50;46.00;;;;;;1559459;75;728;-75
2021/10/20 05:16:07;;;;;;;;;;;23.50;46.00;;;;;;1557498;74;778;-76
2021/10/20 05:18:10;;;;;;;;;;;23.50;46.00;;;;;;1567608;74;804;-77
2021/10/20 05:20:12;;;;;;;;;;;23.40;45.90;;;;;;1565301;74;1209;-76
2021/10/20 05:22:14;;;;;;;;;;;23.40;46.00;;;;;;1563164;74;788;-77
2021/10/20 05:24:16;;;;;;;;;;;23.50;46.30;;;;;;1571185;75;774;-78
2021/10/20 05:26:18;;;;;;;;;;;23.40;46.30;;;;;;1572501;74;766;-78
2021/10/20 05:28:20;;;;;;;;;;;23.40;46.70;;;;;;1568210;74;587;-78
2021/10/20 05:30:22;;;;;;;;;;;23.40;46.50;;;;;;1564449;74;1115;-77
2021/10/20 05:32:25;;;;;;;;;;;23.40;46.50;;;;;;1560750;75;954;-76
2021/10/20 05:34:27;;;;;;;;;;;23.40;46.40;;;;;;1559261;74;942;-76
2021/10/20 05:36:29;;;;;;;;;;;23.40;46.30;;;;;;1561571;74;767;-78
2021/10/20 05:38:31;;;;;;;;;;;23.40;46.30;;;;;;1566584;74;1148;-77
2021/10/20 05:40:34;;;;;;;;;;;23.30;46.30;;;;;;1561239;74;778;-77
2021/10/20 05:42:36;;;;;;;;;;;23.40;46.20;;;;;;1566073;74;549;-77
2021/10/20 05:44:38;;;;;;;;;;;23.30;46.20;;;;;;1563099;74;709;-77
2021/10/20 05:46:40;;;;;;;;;;;23.30;46.20;;;;;;1567903;74;1920;-77
2021/10/20 05:48:42;;;;;;;;;;;23.30;46.10;;;;;;1569531;74;1098;-77
2021/10/20 05:50:43;;;;;;;;;;;23.30;46.00;;;;;;1561590;75;788;-76
2021/10/20 05:52:45;;;;;;;;;;;23.30;46.00;;;;;;1559009;74;974;-76
2021/10/20 05:54:47;;;;;;;;;;;23.30;46.00;;;;;;1558704;74;802;-76
2021/10/20 05:56:49;;;;;;;;;;;23.40;46.00;;;;;;1565100;74;783;-76
2021/10/20 05:58:51;;;;;;;;;;;23.30;45.90;;;;;;1564177;74;1176;-76
2021/10/20 06:00:53;;;;;;;;;;;23.30;45.90;;;;;;1560801;74;728;-76
2021/10/20 06:02:55;;;;;;;;;;;23.30;45.90;;;;;;1569832;74;624;-76
2021/10/20 06:04:57;;;;;;;;;;;23.30;45.90;;;;;;1568319;75;765;-76
2021/10/20 06:06:58;;;;;;;;;;;23.30;45.90;;;;;;1560327;74;1950;-76
2021/10/20 06:09:00;;;;;;;;;;;23.30;45.80;;;;;;1595839;74;1146;-76
2021/10/20 06:11:02;;;;;;;;;;;23.30;45.80;;;;;;1572106;74;674;-77
2021/10/20 06:13:04;;;;;;;;;;;23.30;45.80;;;;;;1563885;74;678;-77
2021/10/20 06:15:06;;;;;;;;;;;23.30;45.80;;;;;;1578731;74;927;-77
2021/10/20 06:17:08;;;;;;;;;;;23.30;45.70;;;;;;1575759;74;692;-77
2021/10/20 06:19:10;;;;;;;;;;;23.30;45.70;;;;;;1571425;74;1202;-77
2021/10/20 06:21:12;;;;;;;;;;;23.30;45.70;;;;;;1572092;74;749;-77
2021/10/20 06:23:14;;;;;;;;;;;23.30;45.70;;;;;;1575294;74;739;-77
2021/10/20 06:25:16;;;;;;;;;;;23.30;45.70;;;;;;1568052;74;733;-77
2021/10/20 06:27:18;;;;;;;;;;;23.30;45.60;;;;;;1571579;74;1946;-77
2021/10/20 06:29:22;;;;;;;;;;;23.30;45.60;;;;;;1573778;74;1143;-77
2021/10/20 06:31:23;;;;;;;;;;;23.40;45.60;;;;;;1584138;74;1128;-77
2021/10/20 06:33:25;;;;;;;;;;;23.30;45.60;;;;;;1569209;74;788;-78
2021/10/20 06:35:27;;;;;;;;;;;23.30;45.60;;;;;;1565339;74;653;-76
2021/10/20 06:37:30;;;;;;;;;;;23.30;45.50;;;;;;1559742;74;734;-75
2021/10/20 06:39:32;;;;;;;;;;;23.30;45.60;;;;;;1552381;74;1146;-76
2021/10/20 06:41:33;;;;;;;;;;;23.30;45.50;;;;;;1558948;75;730;-76
2021/10/20 06:43:35;;;;;;;;;;;23.30;45.50;;;;;;1559768;74;837;-76
2021/10/20 06:45:37;;;;;;;;;;;23.30;45.50;;;;;;1566982;74;791;-76
2021/10/20 06:47:39;;;;;;;;;;;23.30;45.40;;;;;;1558189;75;1937;-76
2021/10/20 06:49:41;;;;;;;;;;;23.30;45.50;;;;;;1559592;74;1131;-76
2021/10/20 06:51:43;;;;;;;;;;;23.30;45.40;;;;;;1561898;74;705;-76
2021/10/20 06:53:45;;;;;;;;;;;23.30;45.40;;;;;;1559183;75;712;-76
2021/10/20 06:55:48;;;;;;;;;;;23.30;45.40;;;;;;1558812;75;796;-75
2021/10/20 06:57:50;;;;;;;;;;;23.30;45.30;;;;;;1554145;75;764;-76
2021/10/20 06:59:52;;;;;;;;;;;23.20;45.20;;;;;;1556572;74;1162;-76
2021/10/20 07:01:54;;;;;;;;;;;23.20;45.20;;;;;;1556657;75;772;-76
2021/10/20 07:03:56;;;;;;;;;;;23.30;45.40;;;;;;1566941;74;655;-77
2021/10/20 07:05:58;;;;;;;;;;;23.30;45.50;;;;;;1572303;75;784;-76
2021/10/20 07:07:59;;;;;;;;;;;23.30;45.50;;;;;;1572432;74;1942;-76
2021/10/20 07:10:01;;;;;;;;;;;23.30;45.50;;;;;;1574020;74;1140;-76
2021/10/20 07:12:03;;;;;;;;;;;23.30;45.60;;;;;;1572267;74;727;-76
2021/10/20 07:14:05;;;;;;;;;;;23.30;45.60;;;;;;1565847;74;689;-77
2021/10/20 07:16:07;;;;;;;;;;;23.30;45.70;;;;;;1556097;74;725;-77
2021/10/20 07:18:09;;;;;;;;;;;23.30;45.70;;;;;;1567583;74;780;-75
2021/10/20 07:20:11;;;;;;;;;;;23.30;45.70;;;;;;1564345;74;1137;-75
2021/10/20 07:22:13;;;;;;;;;;;23.30;45.70;;;;;;1554649;74;678;-75
2021/10/20 07:24:15;;;;;;;;;;;23.30;45.80;;;;;;1566381;74;683;-73
2021/10/20 07:26:21;;;;;;;;;;;23.30;45.80;;;;;;1570354;74;794;-75
2021/10/20 07:28:20;;;;;;;;;;;23.30;45.80;;;;;;1556053;74;1929;-75
2021/10/20 07:30:22;;;;;;;;;;;23.30;45.80;;;;;;1575836;74;969;-74
2021/10/20 07:32:24;;;;;;;;;;;23.30;45.90;;;;;;1553055;74;731;-74
2021/10/20 07:34:26;;;;;;;;;;;23.30;45.90;;;;;;1562707;74;728;-76
2021/10/20 07:36:28;;;;;;;;;;;23.30;45.90;;;;;;1571236;74;713;-73
2021/10/20 07:38:31;;;;;;;;;;;23.30;46.00;;;;;;1561186;74;1155;-73
2021/10/20 07:40:33;;;;;;;;;;;23.30;46.00;;;;;;1557161;75;897;-74
2021/10/20 07:42:40;;;;;;;;;;;23.30;46.00;;;;;;1564862;74;740;-74
2021/10/20 07:44:38;;;;;;;;;;;23.30;45.90;;;;;;1568511;74;1670;-74
2021/10/20 07:46:40;;;;;;;;;;;23.40;45.90;;;;;;1563845;74;653;-75
2021/10/20 07:48:42;;;;;;;;;;;23.40;45.80;;;;;;1559426;74;1957;-73
2021/10/20 07:50:44;;;;;;;;;;;23.40;45.70;;;;;;1565042;74;710;-73
2021/10/20 07:52:48;;;;;;;;;;;23.50;45.70;;;;;;1555689;74;757;-74
2021/10/20 07:54:50;;;;;;;;;;;23.50;45.70;;;;;;1570297;74;746;-75
2021/10/20 07:56:52;;;;;;;;;;;23.50;45.50;;;;;;1570893;74;743;-76
2021/10/20 07:58:54;;;;;;;;;;;23.50;45.50;;;;;;1572284;75;1152;-75
2021/10/20 08:00:56;;;;;;;;;;;23.60;45.30;;;;;;1573209;74;757;-75
2021/10/20 08:03:00;;;;;;;;;;;23.60;45.20;;;;;;1572253;74;784;-76
2021/10/20 08:05:02;;;;;;;;;;;23.70;45.10;;;;;;1573349;74;1638;-75
2021/10/20 08:07:03;;;;;;;;;;;23.70;45.10;;;;;;1571853;74;669;-75
2021/10/20 08:09:05;;;;;;;;;;;23.80;45.00;;;;;;1570456;74;1941;-76
2021/10/20 08:11:07;;;;;;;;;;;23.80;45.00;;;;;;1567823;74;750;-75
2021/10/20 08:13:09;;;;;;;;;;;23.90;44.90;;;;;;1563156;74;791;-75
2021/10/20 08:15:11;;;;;;;;;;;23.80;44.70;;;;;;1564394;74;766;-75
2021/10/20 08:17:13;;;;;;;;;;;23.90;44.70;;;;;;1564979;74;761;-76
2021/10/20 08:19:15;;;;;;;;;;;23.80;44.70;;;;;;1577185;71;228652;-60
2021/10/20 08:21:17;;;;;;;;;;;23.90;44.80;;;;;;1600515;73;695;-60
2021/10/20 08:23:19;;;;;;;;;;;23.90;44.80;;;;;;1598187;73;704;-60
2021/10/20 08:25:21;;;;;;;;;;;23.90;44.70;;;;;;1600521;72;1167;-59
2021/10/20 08:27:22;;;;;;;;;;;23.80;44.70;;;;;;1624249;72;768;-59
2021/10/20 08:29:24;;;;;;;;;;;23.90;44.80;;;;;;1635477;72;1866;-61
2021/10/20 08:31:26;;;;;;;;;;;23.80;44.70;;;;;;1643363;72;728;-59
2021/10/20 08:33:28;;;;;;;;;;;23.90;44.70;;;;;;1612782;72;776;-60
2021/10/20 08:35:30;;;;;;;;;;;23.90;44.70;;;;;;1576709;73;1142;-60
2021/10/20 08:37:32;;;;;;;;;;;23.90;44.70;;;;;;1606317;73;711;-60
2021/10/20 08:39:34;;;;;;;;;;;23.80;44.60;;;;;;1600840;73;794;-60
2021/10/20 08:41:36;;;;;;;;;;;23.90;44.70;;;;;;1607392;73;741;-60
2021/10/20 08:43:37;;;;;;;;;;;23.90;44.70;;;;;;1598242;73;853;-60
2021/10/20 08:45:39;;;;;;;;;;;23.80;44.70;;;;;;1608627;73;1098;-62
2021/10/20 08:47:45;;;;;;;;;;;23.80;44.70;;;;;;1601927;73;1943;-60
2021/10/20 08:49:45;;;;;;;;;;;23.70;44.70;;;;;;1599631;73;1635;-61
2021/10/20 08:51:47;;;;;;;;;;;23.70;44.90;;;;;;1601672;73;774;-60
2021/10/20 08:53:49;;;;;;;;;;;23.80;44.80;;;;;;1596645;73;789;-59
2021/10/20 08:55:51;;;;;;;;;;;23.70;44.80;;;;;;1612450;72;1119;-59
2021/10/20 08:57:53;;;;;;;;;;;23.70;44.80;;;;;;1607879;73;593;-59
2021/10/20 08:59:55;;;;;;;;;;;23.70;44.80;;;;;;1597610;73;677;-60
2021/10/20 09:01:57;;;;;;;;;;;23.70;44.80;;;;;;1600024;73;739;-60
2021/10/20 09:04:00;;;;;;;;;;;23.70;44.90;;;;;;1600955;73;685;-60
2021/10/20 09:06:02;;;;;;;;;;;23.80;44.70;;;;;;1598979;73;1924;-61
2021/10/20 09:08:05;;;;;;;;;;;23.80;44.80;;;;;;1600192;73;1948;-61
2021/10/20 09:10:07;;;;;;;;;;;23.70;44.70;;;;;;1633457;72;676;-60
2021/10/20 09:12:09;;;;;;;;;;;23.70;44.70;;;;;;1615418;72;759;-60
2021/10/20 09:14:14;;;;;;;;;;;23.70;44.70;;;;;;1624835;72;945;-60
2021/10/20 09:16:20;;;;;;;;;;;23.70;44.80;;;;;;1617341;72;735;-60
2021/10/20 09:18:22;;;;;;;;;;;23.80;44.70;;;;;;1640759;72;741;-60
2021/10/20 09:20:31;;;;;;;;;;;23.70;44.80;;;;;;1621323;71;796;-59
2021/10/20 09:22:33;;;;;;;;;;;23.70;44.90;;;;;;1628151;72;712;-60
2021/10/20 09:24:35;;;;;;;;;;;23.70;44.80;;;;;;1627628;72;1230;-60
2021/10/20 09:26:37;;;;;;;;;;;23.70;44.80;;;;;;1626615;72;728;-60
2021/10/20 09:28:40;;;;;;;;;;;23.70;44.90;;;;;;1647149;72;1946;-59
2021/10/20 09:30:42;;;;;;;;;;;23.80;44.80;;;;;;1610334;72;798;-60
2021/10/20 09:32:44;;;;;;;;;;;23.80;44.80;;;;;;1617691;72;703;-60
2021/10/20 09:34:46;;;;;;;;;;;23.80;44.70;;;;;;1632811;72;1214;-59
2021/10/20 09:36:49;;;;;;;;;;;23.70;44.70;;;;;;1599757;73;715;-59
2021/10/20 09:38:52;;;;;;;;;;;23.70;44.80;;;;;;1591624;73;1882;-60
2021/10/20 09:40:54;;;;;;;;;;;23.70;44.80;;;;;;1595591;73;859;-60
2021/10/20 09:42:56;;;;;;;;;;;23.70;44.80;;;;;;1629579;72;746;-59
2021/10/20 09:44:58;;;;;;;;;;;23.70;44.80;;;;;;1624139;72;1204;-60
2021/10/20 09:47:00;;;;;;;;;;;23.70;44.90;;;;;;1583725;74;947;-60
2021/10/20 09:49:03;;;;;;;;;;;23.70;44.80;;;;;;1605402;73;1942;-61
2021/10/20 09:51:07;;;;;;;;;;;23.70;44.80;;;;;;1593216;73;747;-61
2021/10/20 09:53:09;;;;;;;;;;;23.80;44.70;;;;;;1602937;73;844;-61
2021/10/20 09:55:18;;;;;;;;;;;23.70;44.80;;;;;;1582782;74;1099;-61
2021/10/20 09:57:22;;;;;;;;;;;23.70;44.80;;;;;;1611211;73;1907;-59
2021/10/20 09:59:24;;;;;;;;;;;23.70;44.70;;;;;;1596228;73;1107;-59
2021/10/20 10:01:27;;;;;;;;;;;23.80;44.70;;;;;;1604893;73;784;-59
2021/10/20 10:03:29;;;;;;;;;;;23.80;44.70;;;;;;1603548;73;789;-60
2021/10/20 10:05:31;;;;;;;;;;;23.80;44.60;;;;;;1603258;73;1142;-60
2021/10/20 10:07:33;;;;;;;;;;;23.90;44.60;;;;;;1608112;73;754;-61
2021/10/20 10:09:35;;;;;;;;;;;23.90;44.60;;;;;;1602406;73;1953;-60
2021/10/20 10:11:37;;;;;;;;;;;23.70;44.50;;;;;;1600954;73;742;-60
2021/10/20 10:13:50;;;;;;;;;;;23.70;44.70;;;;;;1602687;73;779;-59
2021/10/20 10:15:52;;;;;;;;;;;23.80;44.90;;;;;;1598156;73;1632;-61
2021/10/20 10:17:55;;;;;;;;;;;23.70;45.00;;;;;;1583516;74;1375;-59
2021/10/20 10:19:58;;;;;;;;;;;23.80;45.00;;;;;;1601867;73;768;-61
2021/10/20 10:22:00;;;;;;;;;;;23.80;44.90;;;;;;1604929;73;1946;-60
2021/10/20 10:24:03;;;;;;;;;;;23.90;45.00;;;;;;1583541;74;792;-61
2021/10/20 10:26:08;;;;;;;;;;;24.00;44.90;;;;;;1600800;73;1138;-58
2021/10/20 10:28:11;;;;;;;;;;;24.00;44.80;;;;;;1601208;73;1929;-58
2021/10/20 10:30:17;;;;;;;;;;;24.00;44.80;;;;;;1600652;73;911;-61
2021/10/20 10:32:19;;;;;;;;;;;24.00;44.70;;;;;;1598399;73;741;-61
2021/10/20 10:34:28;;;;;;;;;;;24.00;44.70;;;;;;1602763;73;1153;-57
2021/10/20 10:36:30;;;;;;;;;;;24.10;44.70;;;;;;1597309;73;805;-58
2021/10/20 10:38:46;;;;;;;;;;;24.10;44.70;;;;;;1617535;72;738;-57
2021/10/20 10:40:48;;;;;;;;;;;24.10;44.60;;;;;;1596739;73;805;-61
2021/10/20 10:42:50;;;;;;;;;;;24.10;44.60;;;;;;1576138;74;1213;-57
2021/10/20 10:44:53;;;;;;;;;;;24.10;44.70;;;;;;1599605;73;1134;-61
2021/10/20 10:46:57;;;;;;;;;;;24.10;44.70;;;;;;1598722;73;773;-59
2021/10/20 10:48:58;;;;;;;;;;;24.10;44.70;;;;;;1605301;73;1952;-59
2021/10/20 10:51:00;;;;;;;;;;;24.00;44.60;;;;;;1621079;72;742;-58
2021/10/20 10:53:02;;;;;;;;;;;24.10;44.70;;;;;;1583263;74;1111;-60
2021/10/20 10:55:17;;;;;;;;;;;24.10;44.70;;;;;;1597288;73;1142;-61
2021/10/20 10:57:18;;;;;;;;;;;24.00;44.60;;;;;;1596287;73;1618;-61
2021/10/20 10:59:21;;;;;;;;;;;24.00;44.70;;;;;;1605501;73;778;-61
2021/10/20 11:01:37;;;;;;;;;;;24.00;44.70;;;;;;1594446;73;778;-61
2021/10/20 11:03:39;;;;;;;;;;;24.00;44.70;;;;;;1601936;73;2072;-61
2021/10/20 11:05:43;;;;;;;;;;;24.00;44.70;;;;;;1604691;73;1086;-57
2021/10/20 11:07:45;;;;;;;;;;;24.00;44.90;;;;;;1592188;73;1892;-62
2021/10/20 11:09:47;;;;;;;;;;;24.00;44.90;;;;;;1625159;72;1900;-62
2021/10/20 11:11:51;;;;;;;;;;;23.90;45.00;;;;;;1615919;72;750;-58
2021/10/20 11:13:53;;;;;;;;;;;23.90;45.00;;;;;;1619572;72;769;-61
2021/10/20 11:15:55;;;;;;;;;;;23.90;45.00;;;;;;1618062;72;1144;-59
2021/10/20 11:17:56;;;;;;;;;;;23.90;45.10;;;;;;1616685;72;672;-59
2021/10/20 11:19:59;;;;;;;;;;;23.90;45.20;;;;;;1606358;72;729;-60
2021/10/20 11:22:03;;;;;;;;;;;23.90;45.10;;;;;;1579234;73;1294;-59
2021/10/20 11:24:06;;;;;;;;;;;23.90;45.20;;;;;;1612095;72;1374;-59
2021/10/20 11:26:08;;;;;;;;;;;23.80;45.10;;;;;;1600535;73;1111;-60
2021/10/20 11:28:10;;;;;;;;;;;23.80;45.10;;;;;;1593724;73;752;-58
2021/10/20 11:30:12;;;;;;;;;;;23.80;45.10;;;;;;1592942;73;1917;-61
2021/10/20 11:32:15;;;;;;;;;;;23.80;45.00;;;;;;1616541;72;731;-58
2021/10/20 11:34:21;;;;;;;;;;;23.80;45.00;;;;;;1589773;73;1127;-59
2021/10/20 11:36:23;;;;;;;;;;;23.80;45.00;;;;;;1592798;73;765;-60
2021/10/20 11:38:25;;;;;;;;;;;23.70;45.00;;;;;;1603837;73;726;-59
2021/10/20 11:40:28;;;;;;;;;;;23.70;45.00;;;;;;1600242;73;695;-59
2021/10/20 11:42:32;;;;;;;;;;;23.90;45.00;;;;;;1608819;72;1809;-60
2021/10/20 11:44:35;;;;;;;;;;;23.80;45.00;;;;;;1619927;72;1132;-60
2021/10/20 11:46:36;;;;;;;;;;;23.70;44.90;;;;;;1613485;72;752;-58
2021/10/20 11:48:38;;;;;;;;;;;23.70;44.90;;;;;;1613493;72;1952;-59
2021/10/20 11:50:40;;;;;;;;;;;23.80;44.80;;;;;;1581370;73;1211;-60
2021/10/20 11:52:42;;;;;;;;;;;23.80;44.90;;;;;;1588100;73;717;-60
2021/10/20 11:54:44;;;;;;;;;;;23.70;44.80;;;;;;1605033;73;1126;-60
2021/10/20 11:56:50;;;;;;;;;;;23.80;44.80;;;;;;1603597;73;633;-60
2021/10/20 11:58:52;;;;;;;;;;;23.70;44.80;;;;;;1598275;74;1758;-60
2021/10/20 12:00:56;;;;;;;;;;;23.80;44.70;;;;;;1599511;73;724;-61
2021/10/20 12:03:00;;;;;;;;;;;23.70;44.70;;;;;;1599393;73;716;-59
2021/10/20 12:05:02;;;;;;;;;;;23.70;44.70;;;;;;1616822;72;1134;-59
2021/10/20 12:07:04;;;;;;;;;;;23.70;44.70;;;;;;1614323;73;708;-59
2021/10/20 12:09:06;;;;;;;;;;;23.70;44.70;;;;;;1606928;73;1937;-59